Pacific Topaz — D5CH7 — position and weather

sailwx.info

Track history (hours):
 
Tides and Currents Weather Stations Pressure Air Temp Water Temp Dewpoint Dewpoint Depression Visibility Wind Speed Wind Dir Waves Ship Positions

Pacific Topaz

Last reported at 2018-Jun-10 22:52 UTC. Time now 2018-Jul-16 06:50 UTC.
Position N 28°48' W 094°25'.
Warning: this ship's position is 35 days out of date.

Length 183 m; draft 7.8 m.

Type: Tanker. MMSI: 636015703.

Date/timePositionNaut miles runAvg speedWind from/ knotsBaromVisibWave heightAir tempDewpointWater temp
2018-Jun-10 22:52N 28°48' W 094°25'512.8
2018-Jun-10 22:29N 28°53' W 094°25'2111.9
2018-Jun-10 20:43N 29°13' W 094°32'312.7
2018-Jun-10 20:30N 29°15' W 094°35'5 9.7
2018-Jun-10 20:00N 29°19' W 094°38'711.8
2018-Jun-10 19:27N 29°21' W 094°46'4 9.8
2018-Jun-10 19:00N 29°22' W 094°50'3 5.2
2018-Jun-10 18:30N 29°22' W 094°53'0 0.0
2018-Jun-08 22:37N 29°22' W 094°53'4 4.9
2018-Jun-08 21:49N 29°22' W 094°49'713.1
2018-Jun-08 21:18N 29°21' W 094°41'612.7
2018-Jun-08 20:49N 29°17' W 094°35'36 4.2
2018-Jun-08 12:12N 28°43' W 094°24'511.7
2018-Jun-08 11:46N 28°38' W 094°25'313.0
2018-Jun-08 11:30N 28°35' W 094°25'  
Track history (hours):
 
Tides and Currents Weather Stations Pressure Air Temp Water Temp Dewpoint Dewpoint Depression Visibility Wind Speed Wind Dir Waves Ship Positions

Pacific Topaz

Last reported at 2018-Jun-10 22:52 UTC. Time now 2018-Jul-16 06:50 UTC.
Position N 28°48' W 094°25'.
Warning: this ship's position is 35 days out of date.

Length 183 m; draft 7.8 m.

Type: Tanker. MMSI: 636015703.

Date/timePositionNaut miles runAvg speedWind from/ knotsBaromVisibWave heightAir tempDewpointWater temp
2018-Jun-10 22:52N 28°48' W 094°25'512.8
2018-Jun-10 22:29N 28°53' W 094°25'2111.9
2018-Jun-10 20:43N 29°13' W 094°32'312.7
2018-Jun-10 20:30N 29°15' W 094°35'5 9.7
2018-Jun-10 20:00N 29°19' W 094°38'711.8
2018-Jun-10 19:27N 29°21' W 094°46'4 9.8
2018-Jun-10 19:00N 29°22' W 094°50'3 5.2
2018-Jun-10 18:30N 29°22' W 094°53'0 0.0
2018-Jun-08 22:37N 29°22' W 094°53'4 4.9
2018-Jun-08 21:49N 29°22' W 094°49'713.1
2018-Jun-08 21:18N 29°21' W 094°41'612.7
2018-Jun-08 20:49N 29°17' W 094°35'36 4.2
2018-Jun-08 12:12N 28°43' W 094°24'511.7
2018-Jun-08 11:46N 28°38' W 094°25'313.0
2018-Jun-08 11:30N 28°35' W 094°25'  

Dump ship's entire track history